Montgomery Regional (Dannelly Field) Airport
KMGM : now visible

Airfield :











YOU CAN JOIN US ON...

 
LOGIN :

Register | Disclaimer

   EN    FR    IT 

 









Legend :    VFR   Marginal VFR   IFR   Intensive IFR   Very Intensive IFR
Visi :
Ceiling :
>= 8 km
>= 3000ft
5 to 8 km
1000 to 3000 ft
1500m to 5 km
500 to 1000 ft
800 to 1500m
200 to 500 ft
< 800m
< 200 ft
Symbols :   Thunderstorms  Fog  Heavy snow  Heavy precipitations  Wind > 20 kt






- Airport Elevation : 221 ft
- IATA code : MGM


KMGM - Montgomery Regional (Dannelly Field)

CURRENT METAR :
  • 280353Z 15003KT 8SM -RA SCT070 OVC100 18/17 A3006 RMK AO2 SLP177 P0006 T01780167 $

EXPIRED METARs :
  • 280253Z 00000KT 7SM -RA FEW042 SCT070 OVC095 18/17 A3007 RMK AO2 SLP179 P0004 60118 T01780167 51008 $
  • 280153Z 04005KT 7SM -RA FEW055 BKN075 OVC110 18/17 A3005 RMK AO2 WSHFT 0059 TSE0054E07E17 SLP175 P0096 T01830167 $
  • 280142Z 03005KT 6SM RA BR BKN070 OVC090 18/17 A3006 RMK AO2 WSHFT 0059 LTG DSNT NE-SE TSE0054E07E17 P0092 T01830167 $

TAF KMGM
Valid from the 28 at 02:00 until the 29 at 00:00 UTC


280228Z 2802/2824 VRB04KT 6SM RA BR SCT025 OVC070
FM280900 VRB03KT 4SM -RA BR OVC008
FM281400 36005KT P6SM OVC012
FM281800 01006KT P6SM BKN025
FM282100 36005KT P6SM BKN010
KZTL FIR / North America



MET'MAP, your aeronautical weather chart ! - Copyright ORBIFLY December 2007 - Disclaimer

ORBIFLY MET'MAP TEAM :

Programming & Development : Alexandra Zaïnal
Concept & original design : Baudouin d'Aumeries
Assistance for programming : Marc-Olivier Méhu
Technical & hardware support : Manuel Goepfert

Contact : metmap@orbifly.com




SOURCES & CREDITS :

   NOAA       Earth
Advisory